Time;durP1;ratioP1;P1;durP2;ratioP2;P2;SDS_P1;SDS_P2;PMS_P1;PMS_P2;Temp;Humidity;BMP_temperature;BMP_pressure;BME280_temperature;BME280_humidity;BME280_pressure;Samples;Min_cycle;Max_cycle;Signal;HPM_P1;HPM_P2
2021/04/23 00:00:38;;;;;;;3.50;2.28;;;6.70;71.70;;;;;;5110118;28;20440;-51
2021/04/23 00:03:26;;;;;;;3.17;2.30;;;6.80;72.30;;;;;;5109815;28;20745;-51
2021/04/23 00:06:14;;;;;;;4.97;2.80;;;6.80;73.40;;;;;;5108601;28;20192;-51
2021/04/23 00:08:47;;;;;;;5.88;2.45;;;6.40;73.80;;;;;;5101179;28;20326;-51
2021/04/23 00:11:14;;;;;;;3.95;2.70;;;6.60;74.60;;;;;;5105512;28;20709;-51
2021/04/23 00:13:40;;;;;;;4.68;2.50;;;5.90;74.50;;;;;;5108052;28;20204;-50
2021/04/23 00:16:07;;;;;;;4.82;2.50;;;6.30;74.70;;;;;;5108863;28;20179;-51
2021/04/23 00:18:33;;;;;;;5.35;2.25;;;6.50;75.90;;;;;;5108191;28;20659;-51
2021/04/23 00:21:00;;;;;;;3.07;2.50;;;6.50;75.80;;;;;;5103955;28;20183;-50
2021/04/23 00:23:27;;;;;;;3.85;2.20;;;6.50;76.30;;;;;;5108834;28;20443;-50
2021/04/23 00:25:53;;;;;;;3.10;2.47;;;6.40;77.10;;;;;;5107871;28;20268;-51
2021/04/23 00:28:19;;;;;;;3.65;2.90;;;6.10;77.00;;;;;;5104803;28;20240;-50
2021/04/23 00:30:50;;;;;;;8.77;2.78;;;6.40;78.00;;;;;;5109750;28;20205;-51
2021/04/23 00:33:18;;;;;;;5.38;2.25;;;6.20;77.60;;;;;;5108013;28;20234;-50
2021/04/23 00:35:46;;;;;;;3.55;2.35;;;6.10;78.10;;;;;;5108587;28;20177;-51
2021/04/23 00:38:15;;;;;;;3.63;2.95;;;6.40;80.50;;;;;;5105273;28;20278;-53
2021/04/23 00:40:48;;;;;;;4.80;2.58;;;6.10;79.30;;;;;;5106280;28;20185;-51
2021/04/23 00:43:16;;;;;;;5.07;2.53;;;6.40;79.30;;;;;;5106114;28;20203;-51
2021/04/23 00:45:42;;;;;;;3.45;2.33;;;6.30;79.60;;;;;;5103608;28;20581;-50
2021/04/23 00:48:09;;;;;;;5.35;2.80;;;5.60;78.80;;;;;;5108423;28;20243;-51
2021/04/23 00:50:58;;;;;;;4.25;2.75;;;6.10;80.00;;;;;;5108042;28;20182;-51
2021/04/23 00:53:26;;;;;;;4.18;2.97;;;6.20;79.00;;;;;;5107851;28;20747;-50
2021/04/23 00:55:55;;;;;;;3.65;2.47;;;6.00;78.50;;;;;;5108137;28;20276;-51
2021/04/23 00:58:23;;;;;;;3.75;2.60;;;6.00;79.60;;;;;;5101065;28;20180;-51
2021/04/23 01:01:00;;;;;;;2.97;2.33;;;6.00;80.10;;;;;;5106872;28;20186;-51
2021/04/23 01:03:27;;;;;;;4.78;3.00;;;5.90;80.50;;;;;;5101794;28;20672;-50
2021/04/23 01:05:53;;;;;;;3.28;2.20;;;5.60;80.10;;;;;;5109321;28;20189;-51
2021/04/23 01:08:24;;;;;;;3.03;2.40;;;5.70;81.30;;;;;;5107664;28;20738;-51
2021/04/23 01:10:57;;;;;;;3.80;2.63;;;5.90;81.40;;;;;;5100648;28;20676;-51
2021/04/23 01:13:30;;;;;;;4.68;2.42;;;5.50;80.80;;;;;;5105792;28;20246;-51
2021/04/23 01:15:55;;;;;;;4.35;2.83;;;5.50;81.80;;;;;;5108244;28;20188;-51
2021/04/23 01:18:21;;;;;;;4.07;2.60;;;5.70;81.70;;;;;;5108742;28;20197;-51
2021/04/23 01:20:48;;;;;;;4.13;2.67;;;5.60;82.40;;;;;;5102556;28;20240;-50
2021/04/23 01:23:14;;;;;;;2.70;2.33;;;5.60;82.80;;;;;;5107767;28;20252;-50
2021/04/23 01:25:39;;;;;;;5.90;2.60;;;5.20;83.40;;;;;;5107827;28;20701;-51
2021/04/23 01:28:05;;;;;;;5.33;2.90;;;5.60;83.60;;;;;;5107981;28;20233;-50
2021/04/23 01:30:31;;;;;;;5.50;2.70;;;5.70;83.80;;;;;;5107651;28;20346;-51
2021/04/23 01:32:56;;;;;;;3.50;2.37;;;5.40;84.00;;;;;;5107878;28;20271;-51
2021/04/23 01:35:26;;;;;;;2.67;2.40;;;5.60;85.70;;;;;;5109076;28;20589;-51
2021/04/23 01:37:53;;;;;;;4.57;2.50;;;5.20;86.70;;;;;;5114627;28;20192;-51
2021/04/23 01:40:21;;;;;;;3.92;2.60;;;5.30;86.80;;;;;;5114690;28;20177;-51
2021/04/23 01:42:47;;;;;;;3.03;2.03;;;5.30;86.10;;;;;;5113772;27;20212;-51
2021/04/23 01:45:13;;;;;;;7.80;3.70;;;5.50;85.40;;;;;;5116419;27;20187;-51
2021/04/23 01:47:39;;;;;;;4.57;2.90;;;5.20;85.00;;;;;;5096565;28;20268;-51
2021/04/23 01:50:09;;;;;;;3.40;2.50;;;5.30;85.80;;;;;;5114011;28;20211;-51
2021/04/23 01:52:34;;;;;;;8.95;2.83;;;5.20;85.90;;;;;;5112453;28;20461;-51
2021/04/23 01:55:00;;;;;;;6.60;2.60;;;5.50;86.20;;;;;;5113548;28;20195;-51
2021/04/23 01:57:26;;;;;;;5.38;2.30;;;5.30;86.60;;;;;;5114313;28;20183;-51
2021/04/23 01:59:52;;;;;;;4.07;2.80;;;5.10;86.80;;;;;;5114395;28;20271;-51
2021/04/23 02:02:18;;;;;;;4.70;2.65;;;5.30;87.40;;;;;;5115008;28;20514;-51
2021/04/23 02:04:48;;;;;;;4.30;2.70;;;5.30;87.70;;;;;;5115234;28;20650;-50
2021/04/23 02:07:15;;;;;;;4.43;2.47;;;5.10;87.20;;;;;;5114800;28;20444;-51
2021/04/23 02:09:41;;;;;;;3.22;2.70;;;5.00;87.60;;;;;;5097344;28;20187;-51
2021/04/23 02:12:07;;;;;;;4.63;2.40;;;5.10;87.50;;;;;;5110465;28;20204;-51
2021/04/23 02:14:33;;;;;;;4.05;2.75;;;5.10;87.40;;;;;;5110148;28;20172;-51
2021/04/23 02:16:59;;;;;;;4.40;2.33;;;4.50;87.50;;;;;;5114705;28;20223;-51
2021/04/23 02:19:25;;;;;;;3.17;2.67;;;5.00;88.40;;;;;;5113773;28;20176;-51
2021/04/23 02:21:51;;;;;;;3.80;2.60;;;5.00;89.00;;;;;;5114076;28;20454;-51
2021/04/23 02:24:17;;;;;;;4.27;2.20;;;5.00;89.50;;;;;;5114318;28;20246;-51
2021/04/23 02:26:43;;;;;;;4.00;2.47;;;4.90;89.50;;;;;;5114043;28;20202;-51
2021/04/23 02:29:14;;;;;;;5.10;3.00;;;4.80;88.90;;;;;;5114169;28;20477;-51
2021/04/23 02:31:46;;;;;;;4.72;2.35;;;5.10;89.10;;;;;;5114918;27;20670;-50
2021/04/23 02:34:14;;;;;;;3.78;2.92;;;4.80;89.90;;;;;;5114042;28;20701;-50
2021/04/23 02:36:41;;;;;;;3.90;2.50;;;4.90;90.40;;;;;;5114219;28;20187;-51
2021/04/23 02:39:10;;;;;;;5.30;2.70;;;4.70;90.50;;;;;;5113834;28;20233;-50
2021/04/23 02:41:35;;;;;;;3.40;3.03;;;5.00;90.40;;;;;;5110238;28;20266;-51
2021/04/23 02:44:02;;;;;;;3.10;2.80;;;4.70;90.40;;;;;;5113825;28;20554;-51
2021/04/23 02:46:28;;;;;;;4.97;2.63;;;4.70;90.70;;;;;;5113390;28;20435;-50
2021/04/23 02:48:54;;;;;;;5.73;2.80;;;4.70;90.70;;;;;;5109313;28;20214;-50
2021/04/23 02:51:29;;;;;;;6.90;2.85;;;4.60;90.90;;;;;;5110266;28;20480;-50
2021/04/23 02:53:56;;;;;;;4.35;2.78;;;4.60;91.10;;;;;;5110386;28;20188;-51
2021/04/23 02:56:24;;;;;;;3.80;2.60;;;4.60;90.80;;;;;;5109790;28;20586;-51
2021/04/23 02:58:51;;;;;;;4.43;2.80;;;4.70;91.00;;;;;;5109922;28;20618;-50
2021/04/23 03:01:19;;;;;;;2.80;2.50;;;4.40;90.60;;;;;;5101953;28;20199;-51
2021/04/23 03:03:45;;;;;;;5.45;2.75;;;4.70;91.30;;;;;;5110223;28;20592;-51
2021/04/23 03:06:12;;;;;;;7.22;2.78;;;4.30;91.30;;;;;;5110974;28;20210;-51
2021/04/23 03:08:38;;;;;;;4.22;2.80;;;4.30;91.80;;;;;;5110606;28;20668;-50
2021/04/23 03:11:11;;;;;;;3.90;2.72;;;4.50;91.80;;;;;;5110214;28;20674;-50
2021/04/23 03:13:39;;;;;;;4.18;2.58;;;4.20;91.90;;;;;;5113187;27;20252;-50
2021/04/23 03:16:07;;;;;;;4.57;3.05;;;4.20;92.10;;;;;;5110848;27;20188;-50
2021/04/23 03:18:34;;;;;;;4.35;2.63;;;4.20;92.40;;;;;;5109792;28;20278;-51
2021/04/23 03:21:04;;;;;;;4.85;2.90;;;4.30;92.60;;;;;;5110136;28;20184;-51
2021/04/23 03:23:30;;;;;;;4.35;3.13;;;4.30;92.60;;;;;;5110111;28;20183;-50
2021/04/23 03:25:59;;;;;;;6.40;3.10;;;4.30;92.50;;;;;;5109819;28;20194;-50
2021/04/23 03:28:28;;;;;;;5.05;2.90;;;4.20;92.60;;;;;;5109455;28;20331;-51
2021/04/23 03:30:55;;;;;;;4.40;2.75;;;4.30;92.20;;;;;;5103542;28;20204;-50
2021/04/23 03:33:21;;;;;;;8.15;4.07;;;4.70;92.90;;;;;;5109595;28;20203;-51
2021/04/23 03:35:52;;;;;;;4.00;2.95;;;4.10;92.90;;;;;;5109599;28;20187;-50
2021/04/23 03:38:19;;;;;;;7.22;3.08;;;4.20;93.60;;;;;;5103910;28;20172;-50
2021/04/23 03:40:46;;;;;;;3.20;2.90;;;3.90;93.20;;;;;;5100608;28;20184;-51
2021/04/23 03:43:12;;;;;;;4.60;3.15;;;4.20;93.00;;;;;;5109593;28;20211;-51
2021/04/23 03:45:39;;;;;;;4.80;2.90;;;4.30;93.10;;;;;;5109489;28;20237;-50
2021/04/23 03:48:06;;;;;;;6.57;3.20;;;4.10;93.10;;;;;;5109451;28;20556;-51
2021/04/23 03:50:33;;;;;;;10.00;3.72;;;4.30;93.20;;;;;;5109362;28;20184;-50
2021/04/23 03:53:01;;;;;;;7.22;3.60;;;4.10;93.10;;;;;;5110619;28;20203;-50
2021/04/23 03:55:33;;;;;;;3.20;2.83;;;4.10;92.90;;;;;;5109361;28;20725;-50
2021/04/23 03:58:00;;;;;;;4.60;2.70;;;4.10;93.60;;;;;;5102035;28;20196;-50
2021/04/23 04:00:33;;;;;;;3.25;2.90;;;4.10;93.70;;;;;;5107707;28;20678;-50
2021/04/23 04:02:59;;;;;;;4.22;2.25;;;4.00;93.70;;;;;;5109283;28;20248;-51
2021/04/23 04:05:25;;;;;;;9.87;2.97;;;4.00;93.70;;;;;;5108418;28;20184;-51
2021/04/23 04:07:50;;;;;;;3.83;2.63;;;3.90;93.70;;;;;;5108762;28;20441;-51
2021/04/23 04:10:17;;;;;;;3.90;2.73;;;4.00;93.80;;;;;;5108456;28;20194;-50
2021/04/23 04:12:43;;;;;;;4.55;3.20;;;3.80;94.30;;;;;;5104047;28;20211;-50
2021/04/23 04:15:10;;;;;;;3.50;2.87;;;3.80;94.60;;;;;;5108588;28;20566;-51
2021/04/23 04:17:39;;;;;;;5.55;3.55;;;4.10;95.00;;;;;;5109043;28;20183;-51
2021/04/23 04:20:08;;;;;;;6.10;3.35;;;4.10;94.90;;;;;;5108016;28;20191;-50
2021/04/23 04:22:37;;;;;;;5.03;3.40;;;3.80;94.30;;;;;;5106652;28;20205;-51
2021/04/23 04:25:05;;;;;;;6.72;2.90;;;3.90;94.90;;;;;;5108488;28;20191;-51
2021/04/23 04:27:31;;;;;;;5.38;2.65;;;3.70;94.70;;;;;;5108480;28;20188;-50
2021/04/23 04:29:57;;;;;;;5.87;3.10;;;3.80;94.40;;;;;;5105767;28;20187;-51
2021/04/23 04:32:23;;;;;;;4.10;3.05;;;3.80;94.70;;;;;;5094242;28;20462;-51
2021/04/23 04:34:50;;;;;;;4.60;2.90;;;3.90;94.90;;;;;;5104475;28;20684;-52
2021/04/23 04:37:18;;;;;;;4.38;3.05;;;3.80;95.00;;;;;;5099457;28;20179;-52
2021/04/23 04:39:49;;;;;;;5.97;3.00;;;4.20;95.20;;;;;;5107009;28;20188;-51
2021/04/23 04:42:14;;;;;;;4.43;3.00;;;4.20;94.60;;;;;;5100678;28;20290;-51
2021/04/23 04:44:40;;;;;;;5.13;2.93;;;4.00;94.40;;;;;;5102489;27;20637;-52
2021/04/23 04:47:11;;;;;;;6.23;3.17;;;4.00;94.40;;;;;;5101216;27;20859;-52
2021/04/23 04:49:37;;;;;;;4.65;2.80;;;4.10;94.60;;;;;;5101553;28;20444;-52
2021/04/23 04:52:05;;;;;;;6.10;3.07;;;3.80;94.40;;;;;;5107367;27;20485;-54
2021/04/23 04:54:33;;;;;;;4.68;3.13;;;4.00;94.60;;;;;;5101840;28;20975;-54
2021/04/23 04:57:00;;;;;;;6.00;2.83;;;4.00;94.70;;;;;;5101717;27;21129;-54
2021/04/23 04:59:30;;;;;;;8.98;3.85;;;3.90;95.10;;;;;;5102618;27;20184;-53
2021/04/23 05:01:56;;;;;;;9.15;3.97;;;3.80;95.10;;;;;;5101975;28;20941;-53
2021/04/23 05:04:25;;;;;;;7.20;3.10;;;4.00;95.20;;;;;;5103288;28;20192;-51
2021/04/23 05:06:53;;;;;;;15.05;8.40;;;3.80;95.10;;;;;;5101027;28;20434;-51
2021/04/23 05:09:21;;;;;;;5.50;3.42;;;4.00;95.30;;;;;;5101785;27;20184;-50
2021/04/23 05:11:47;;;;;;;5.47;3.25;;;4.00;95.30;;;;;;5105754;28;20208;-50
2021/04/23 05:14:15;;;;;;;4.17;3.63;;;4.00;95.40;;;;;;5106178;27;20556;-53
2021/04/23 05:16:44;;;;;;;4.40;3.58;;;4.20;95.40;;;;;;5099949;27;20867;-52
2021/04/23 05:19:10;;;;;;;6.82;3.42;;;4.00;95.50;;;;;;5103268;28;20211;-52
2021/04/23 05:21:44;;;;;;;6.30;2.97;;;4.40;95.10;;;;;;5084151;28;20227;-52
2021/04/23 05:24:11;;;;;;;5.65;3.00;;;4.40;94.80;;;;;;5106368;27;20565;-52
2021/04/23 05:26:44;;;;;;;13.95;3.35;;;4.40;95.00;;;;;;5100952;27;20172;-51
2021/04/23 05:29:13;;;;;;;5.40;3.22;;;4.60;94.70;;;;;;5117602;27;20192;-51
2021/04/23 05:31:39;;;;;;;9.65;4.55;;;4.70;94.80;;;;;;5107945;27;20230;-51
2021/04/23 05:34:05;;;;;;;7.45;4.43;;;4.20;93.80;;;;;;5095611;28;20634;-51
2021/04/23 05:36:34;;;;;;;5.43;3.83;;;4.40;94.10;;;;;;5099710;28;20221;-50
2021/04/23 05:39:00;;;;;;;7.13;3.63;;;4.70;94.20;;;;;;5098271;28;20437;-51
2021/04/23 05:41:26;;;;;;;6.23;3.60;;;4.70;94.00;;;;;;5105967;28;20617;-51
2021/04/23 05:43:54;;;;;;;4.80;4.00;;;4.80;93.90;;;;;;5105133;28;21018;-50
2021/04/23 05:46:23;;;;;;;6.47;3.53;;;4.90;93.60;;;;;;5105548;28;20473;-50
2021/04/23 05:48:49;;;;;;;4.13;3.72;;;5.30;93.50;;;;;;5106699;28;20195;-51
2021/04/23 05:51:16;;;;;;;7.70;4.30;;;5.40;93.20;;;;;;5102213;28;20188;-51
2021/04/23 05:53:43;;;;;;;7.22;4.47;;;5.50;93.00;;;;;;5100188;28;20230;-56
2021/04/23 05:56:19;;;;;;;9.77;3.85;;;5.40;92.70;;;;;;5098700;28;20570;-53
2021/04/23 05:58:44;;;;;;;7.38;4.00;;;5.40;92.60;;;;;;5105900;28;20274;-53
2021/04/23 06:01:10;;;;;;;7.03;4.23;;;5.60;92.30;;;;;;5108170;28;20650;-54
2021/04/23 06:03:36;;;;;;;7.67;4.00;;;5.90;92.10;;;;;;5101268;28;20438;-53
2021/04/23 06:06:04;;;;;;;10.87;6.37;;;6.00;91.90;;;;;;5101253;28;20280;-54
2021/04/23 06:08:30;;;;;;;7.20;4.57;;;6.10;91.50;;;;;;5099306;28;20888;-52
2021/04/23 06:10:56;;;;;;;6.50;3.83;;;6.70;91.40;;;;;;5103224;28;20213;-54
2021/04/23 06:13:21;;;;;;;7.40;4.10;;;7.10;90.50;;;;;;5100953;28;20854;-54
2021/04/23 06:15:48;;;;;;;6.17;4.33;;;7.30;88.60;;;;;;5104837;28;20183;-54
2021/04/23 06:18:14;;;;;;;6.30;4.20;;;8.00;86.90;;;;;;5098042;28;20183;-52
2021/04/23 06:20:42;;;;;;;9.27;4.65;;;8.10;85.50;;;;;;5104999;28;20187;-52
2021/04/23 06:23:07;;;;;;;7.20;5.03;;;8.30;84.30;;;;;;5105098;28;20290;-52
2021/04/23 06:25:33;;;;;;;12.03;5.27;;;8.50;84.00;;;;;;5106440;28;20714;-52
2021/04/23 06:28:03;;;;;;;6.63;4.50;;;8.80;82.10;;;;;;5104243;28;20184;-55
2021/04/23 06:30:32;;;;;;;10.05;5.82;;;8.10;80.00;;;;;;5096885;27;20191;-52
2021/04/23 06:32:59;;;;;;;5.57;4.60;;;8.50;80.50;;;;;;5105561;28;20208;-49
2021/04/23 06:35:29;;;;;;;11.02;7.20;;;8.40;81.50;;;;;;5111892;28;20294;-49
2021/04/23 06:37:56;;;;;;;7.10;5.00;;;8.60;80.40;;;;;;5103809;28;20271;-50
2021/04/23 06:40:21;;;;;;;10.85;5.63;;;9.00;80.00;;;;;;5110998;28;20637;-51
2021/04/23 06:42:47;;;;;;;12.10;6.17;;;9.50;79.10;;;;;;5103936;28;20224;-51
2021/04/23 06:45:18;;;;;;;8.40;6.13;;;10.10;75.50;;;;;;5105413;28;20401;-54
2021/04/23 06:47:43;;;;;;;7.53;5.50;;;10.70;74.20;;;;;;5121439;27;20943;-54
2021/04/23 06:50:12;;;;;;;7.27;5.33;;;11.00;72.30;;;;;;5110396;28;20187;-54
2021/04/23 06:52:38;;;;;;;10.25;6.60;;;11.40;70.40;;;;;;5104022;28;20726;-54
2021/04/23 06:55:09;;;;;;;9.90;6.22;;;11.90;68.10;;;;;;5108567;28;20258;-55
2021/04/23 06:57:35;;;;;;;9.18;6.40;;;12.90;65.20;;;;;;5125363;27;20552;-56
2021/04/23 07:00:02;;;;;;;10.02;5.90;;;14.40;60.60;;;;;;5107878;28;20545;-55
2021/04/23 07:02:27;;;;;;;9.00;5.80;;;16.30;57.80;;;;;;5106224;28;20203;-50
2021/04/23 07:04:54;;;;;;;7.43;5.93;;;16.30;53.40;;;;;;5108743;28;20273;-51
2021/04/23 07:07:19;;;;;;;9.30;6.03;;;17.20;51.60;;;;;;5107518;28;20539;-52
2021/04/23 07:09:45;;;;;;;10.80;6.30;;;17.60;49.50;;;;;;5107662;28;20190;-51
2021/04/23 07:12:10;;;;;;;8.20;6.90;;;18.90;47.30;;;;;;5105030;28;20208;-51
2021/04/23 07:14:36;;;;;;;7.73;6.20;;;20.40;44.50;;;;;;5105905;28;20225;-51
2021/04/23 07:17:04;;;;;;;7.17;6.27;;;22.00;41.80;;;;;;5107401;28;20282;-51
2021/04/23 07:19:29;;;;;;;9.07;5.83;;;23.10;39.00;;;;;;5107945;28;20255;-52
2021/04/23 07:21:55;;;;;;;9.20;4.93;;;23.40;37.60;;;;;;5109537;28;21079;-54
2021/04/23 07:24:20;;;;;;;7.73;5.60;;;23.90;35.60;;;;;;5107931;28;20296;-54
2021/04/23 07:26:46;;;;;;;8.23;5.67;;;24.10;34.40;;;;;;5101465;28;20186;-54
2021/04/23 07:29:12;;;;;;;8.07;5.33;;;23.30;35.20;;;;;;5108548;28;20186;-53
2021/04/23 07:31:38;;;;;;;9.53;6.40;;;22.90;35.30;;;;;;5108362;28;20473;-56
2021/04/23 07:34:04;;;;;;;13.40;6.87;;;23.00;36.20;;;;;;5107778;28;20231;-51
2021/04/23 07:36:30;;;;;;;9.27;6.23;;;23.40;35.80;;;;;;5102685;28;20501;-53
2021/04/23 07:38:56;;;;;;;7.77;6.13;;;24.20;34.80;;;;;;5102439;28;20191;-53
2021/04/23 07:41:22;;;;;;;7.63;6.30;;;24.10;34.30;;;;;;5107655;28;20426;-53
2021/04/23 07:43:48;;;;;;;9.70;6.83;;;25.50;33.80;;;;;;5103947;28;20194;-53
2021/04/23 07:46:15;;;;;;;7.93;7.13;;;24.00;34.10;;;;;;5109688;28;20475;-53
2021/04/23 07:48:40;;;;;;;8.63;6.33;;;24.90;33.40;;;;;;5108875;28;20601;-53
2021/04/23 07:51:06;;;;;;;12.63;7.50;;;25.80;32.30;;;;;;5110264;28;20437;-53
2021/04/23 07:53:32;;;;;;;8.37;6.10;;;24.60;33.50;;;;;;5109882;28;20558;-53
2021/04/23 07:55:57;;;;;;;10.80;7.00;;;25.00;32.50;;;;;;5104654;28;20223;-53
2021/04/23 07:58:23;;;;;;;10.63;6.23;;;25.50;32.40;;;;;;5107789;28;20309;-52
2021/04/23 08:00:49;;;;;;;9.33;6.37;;;22.70;33.70;;;;;;5106706;28;20191;-51
2021/04/23 08:03:14;;;;;;;10.27;6.87;;;24.40;33.70;;;;;;5119886;27;20382;-54
2021/04/23 08:05:40;;;;;;;10.33;5.67;;;23.30;32.60;;;;;;5104399;28;20589;-54
2021/04/23 08:08:08;;;;;;;5.60;5.10;;;22.40;34.30;;;;;;5099447;28;20186;-54
2021/04/23 08:10:34;;;;;;;10.30;6.10;;;24.10;33.30;;;;;;5106836;28;20485;-58
2021/04/23 08:13:00;;;;;;;8.03;5.70;;;24.10;32.70;;;;;;5102274;28;20641;-54
2021/04/23 08:15:26;;;;;;;6.40;5.33;;;24.20;32.60;;;;;;5108508;28;20562;-54
2021/04/23 08:17:54;;;;;;;8.50;6.10;;;24.90;32.20;;;;;;5101442;28;20187;-54
2021/04/23 08:20:20;;;;;;;8.40;5.93;;;23.90;32.20;;;;;;5109097;28;20505;-53
2021/04/23 08:22:46;;;;;;;10.37;6.10;;;24.80;32.80;;;;;;5100251;28;20551;-53
2021/04/23 08:25:14;;;;;;;13.90;6.40;;;24.10;31.80;;;;;;5101633;28;20451;-52
2021/04/23 08:27:40;;;;;;;9.30;5.90;;;24.00;32.10;;;;;;5104116;28;20484;-54
2021/04/23 08:30:08;;;;;;;10.90;5.93;;;24.10;32.50;;;;;;5107147;28;20191;-55
2021/04/23 08:32:34;;;;;;;7.20;5.37;;;25.40;31.70;;;;;;5107414;28;20461;-55
2021/04/23 08:34:59;;;;;;;7.63;5.40;;;25.70;30.00;;;;;;5107730;28;20430;-54
2021/04/23 08:37:25;;;;;;;10.60;5.83;;;24.00;31.80;;;;;;5103410;28;20954;-52
2021/04/23 08:39:51;;;;;;;7.53;5.33;;;24.50;30.80;;;;;;5103858;28;20306;-55
2021/04/23 08:42:16;;;;;;;8.00;7.20;;;25.70;30.40;;;;;;5101044;28;20693;-55
2021/04/23 08:44:43;;;;;;;8.27;5.60;;;26.00;29.90;;;;;;5104908;28;20183;-54
2021/04/23 08:47:08;;;;;;;9.53;5.60;;;25.10;30.00;;;;;;5097045;28;20183;-56
2021/04/23 08:49:36;;;;;;;7.70;5.20;;;25.40;30.20;;;;;;5102015;28;20495;-56
2021/04/23 08:52:02;;;;;;;10.10;6.30;;;26.00;30.00;;;;;;5103453;28;20589;-52
2021/04/23 08:54:28;;;;;;;10.13;6.30;;;26.60;29.20;;;;;;5106440;28;20831;-53
2021/04/23 08:56:55;;;;;;;8.87;5.43;;;26.20;29.80;;;;;;5102568;28;20427;-54
2021/04/23 08:59:20;;;;;;;7.33;5.67;;;25.90;29.50;;;;;;5106363;28;20442;-53
2021/04/23 09:01:46;;;;;;;8.38;6.20;;;26.70;29.10;;;;;;5107341;28;20423;-54
2021/04/23 09:04:12;;;;;;;11.03;7.10;;;27.00;28.80;;;;;;5104954;28;20173;-53
2021/04/23 09:06:39;;;;;;;10.35;5.80;;;25.30;29.70;;;;;;5106127;28;20449;-55
2021/04/23 09:09:12;;;;;;;10.43;6.33;;;26.40;29.40;;;;;;5104060;28;20272;-53
2021/04/23 09:11:44;;;;;;;9.20;5.43;;;25.50;29.10;;;;;;5106301;28;20820;-52
2021/04/23 09:14:14;;;;;;;10.13;6.00;;;24.70;30.10;;;;;;5098795;28;20433;-54
2021/04/23 09:16:56;;;;;;;9.03;6.10;;;25.60;29.50;;;;;;5104241;28;20429;-54
2021/04/23 09:19:27;;;;;;;7.97;6.37;;;25.50;29.70;;;;;;5104921;28;21137;-54
2021/04/23 09:22:04;;;;;;;7.37;5.70;;;24.40;30.00;;;;;;5105301;28;20648;-56
2021/04/23 09:24:40;;;;;;;8.03;6.37;;;24.20;30.20;;;;;;5103910;28;20454;-57
2021/04/23 09:27:20;;;;;;;7.73;5.17;;;23.20;30.80;;;;;;5102996;28;20431;-57
2021/04/23 09:29:51;;;;;;;7.60;6.60;;;23.20;31.40;;;;;;5099915;28;20432;-57
2021/04/23 09:32:29;;;;;;;8.00;5.78;;;21.80;32.40;;;;;;5103314;28;20468;-57
2021/04/23 09:35:00;;;;;;;8.82;7.10;;;20.80;34.10;;;;;;5093511;28;20179;-58
2021/04/23 09:37:39;;;;;;;10.67;5.67;;;20.30;35.20;;;;;;5100113;28;20203;-54
2021/04/23 09:40:07;;;;;;;9.20;5.50;;;20.90;35.00;;;;;;5102377;28;20803;-55
2021/04/23 09:42:55;;;;;;;7.70;5.47;;;20.90;34.10;;;;;;5105810;28;20464;-54
2021/04/23 09:45:24;;;;;;;7.32;5.93;;;20.70;34.90;;;;;;5103675;28;20770;-55
2021/04/23 09:47:51;;;;;;;7.27;5.20;;;21.30;34.30;;;;;;5104017;28;20172;-55
2021/04/23 09:50:18;;;;;;;12.43;5.60;;;21.50;33.50;;;;;;5103226;28;20434;-54
2021/04/23 09:52:49;;;;;;;6.37;5.70;;;21.50;33.90;;;;;;5105223;28;20468;-54
2021/04/23 09:55:17;;;;;;;8.57;5.93;;;21.60;34.00;;;;;;5101929;28;20910;-55
2021/04/23 09:57:54;;;;;;;8.33;7.00;;;22.00;33.60;;;;;;5098707;28;20566;-55
2021/04/23 10:00:25;;;;;;;6.93;5.80;;;22.30;32.30;;;;;;5108387;28;20516;-55
2021/04/23 10:02:55;;;;;;;9.67;5.70;;;21.50;33.20;;;;;;5107425;28;20821;-55
2021/04/23 10:05:35;;;;;;;8.93;6.07;;;21.50;34.10;;;;;;5109420;28;20476;-54
2021/04/23 10:08:22;;;;;;;6.53;4.75;;;20.80;33.60;;;;;;5105037;28;20550;-55
2021/04/23 10:10:56;;;;;;;8.18;5.45;;;20.80;34.10;;;;;;5105807;28;20187;-54
2021/04/23 10:13:30;;;;;;;8.13;5.05;;;19.90;35.00;;;;;;5106167;28;20207;-55
2021/04/23 10:15:57;;;;;;;6.93;4.82;;;19.90;36.00;;;;;;5103390;28;20179;-53
2021/04/23 10:18:32;;;;;;;6.15;4.95;;;20.00;35.60;;;;;;5121685;27;20206;-55
2021/04/23 10:20:59;;;;;;;6.22;5.25;;;19.50;34.90;;;;;;5109289;28;20187;-55
2021/04/23 10:23:25;;;;;;;5.75;4.80;;;19.20;34.30;;;;;;5106409;28;20488;-55
2021/04/23 10:25:53;;;;;;;5.17;4.57;;;19.50;34.70;;;;;;5100296;28;20264;-53
2021/04/23 10:28:21;;;;;;;6.78;4.90;;;19.40;34.50;;;;;;5099213;28;20187;-53
2021/04/23 10:30:50;;;;;;;10.55;6.13;;;19.20;36.20;;;;;;5108052;28;20253;-56
2021/04/23 10:33:19;;;;;;;7.47;4.93;;;18.60;37.00;;;;;;5107905;27;20739;-55
2021/04/23 10:35:46;;;;;;;7.85;5.80;;;18.80;37.30;;;;;;5100537;28;20188;-61
2021/04/23 10:38:17;;;;;;;7.20;5.65;;;18.90;36.60;;;;;;5109245;27;20179;-56
2021/04/23 10:40:45;;;;;;;7.90;5.60;;;19.10;36.70;;;;;;5106731;28;20472;-55
2021/04/23 10:43:17;;;;;;;7.72;4.80;;;19.30;36.40;;;;;;5108423;28;20568;-57
2021/04/23 10:45:48;;;;;;;7.35;5.40;;;19.40;37.30;;;;;;5100860;28;20188;-57
2021/04/23 10:48:17;;;;;;;7.53;4.47;;;19.80;36.10;;;;;;5108046;28;20688;-58
2021/04/23 10:50:46;;;;;;;7.28;5.00;;;19.90;35.00;;;;;;5108632;28;20187;-56
2021/04/23 10:53:16;;;;;;;6.40;4.80;;;20.00;34.50;;;;;;5100382;28;20302;-57
2021/04/23 10:55:51;;;;;;;8.50;4.97;;;20.20;33.60;;;;;;5110492;27;20191;-55
2021/04/23 10:58:26;;;;;;;7.18;4.20;;;20.50;33.30;;;;;;5110852;27;20671;-56
2021/04/23 11:00:57;;;;;;;9.40;5.43;;;20.70;31.70;;;;;;5105941;28;20182;-58
2021/04/23 11:03:26;;;;;;;6.28;5.13;;;20.90;32.40;;;;;;5109426;28;20439;-56
2021/04/23 11:05:57;;;;;;;8.75;5.20;;;20.80;32.80;;;;;;5103075;28;20531;-57
2021/04/23 11:08:25;;;;;;;5.63;4.53;;;20.40;32.80;;;;;;5105640;28;20548;-56
2021/04/23 11:11:00;;;;;;;8.52;5.75;;;20.40;33.20;;;;;;5110406;28;20183;-58
2021/04/23 11:13:33;;;;;;;8.18;4.95;;;20.20;32.70;;;;;;5106353;28;20222;-57
2021/04/23 11:16:17;;;;;;;7.13;5.25;;;20.10;32.00;;;;;;5105410;28;20654;-57
2021/04/23 11:18:44;;;;;;;5.97;4.60;;;20.20;34.00;;;;;;5118590;27;20183;-55
2021/04/23 11:21:32;;;;;;;6.53;5.70;;;20.20;33.90;;;;;;5106832;28;20329;-58
2021/04/23 11:24:10;;;;;;;6.88;4.95;;;20.00;33.40;;;;;;5102934;28;20175;-56
2021/04/23 11:29:32;;;;;;;9.15;4.80;;;19.30;33.60;;;;;;5110237;28;20517;-54
2021/04/23 11:32:13;;;;;;;5.95;5.05;;;18.90;33.50;;;;;;5105767;28;20215;-54
2021/04/23 11:34:40;;;;;;;10.02;4.68;;;19.80;33.20;;;;;;5106819;28;20203;-54
2021/04/23 11:37:22;;;;;;;8.10;5.32;;;19.70;33.30;;;;;;5108659;28;20179;-55
2021/04/23 11:39:55;;;;;;;6.63;4.95;;;20.20;32.90;;;;;;5118341;27;20431;-53
2021/04/23 11:42:46;;;;;;;7.72;4.97;;;20.40;31.50;;;;;;5103879;28;20203;-54
2021/04/23 11:45:12;;;;;;;8.43;4.55;;;20.10;31.80;;;;;;5105450;28;20187;-54
2021/04/23 11:47:40;;;;;;;7.13;5.50;;;20.00;32.60;;;;;;5100266;28;20281;-54
2021/04/23 11:50:10;;;;;;;10.75;5.75;;;19.80;33.60;;;;;;5107765;28;20250;-55
2021/04/23 11:52:36;;;;;;;6.95;5.07;;;19.70;33.80;;;;;;5092086;28;20471;-55
2021/04/23 11:55:17;;;;;;;6.45;4.70;;;19.50;32.80;;;;;;5104438;28;20187;-53
2021/04/23 11:57:51;;;;;;;8.52;5.18;;;19.80;33.10;;;;;;5096660;28;20413;-53
2021/04/23 12:00:23;;;;;;;7.40;4.85;;;19.80;32.50;;;;;;5118427;27;20181;-53
2021/04/23 12:02:55;;;;;;;9.75;6.93;;;19.90;32.20;;;;;;5103100;28;20204;-52
2021/04/23 12:05:26;;;;;;;4.60;4.10;;;19.50;32.40;;;;;;5115441;27;20191;-53
2021/04/23 12:07:53;;;;;;;11.15;4.50;;;19.20;31.40;;;;;;5101787;28;20179;-56
2021/04/23 12:10:22;;;;;;;6.13;4.80;;;18.80;33.10;;;;;;5108401;28;20662;-57
2021/04/23 12:12:48;;;;;;;8.07;5.03;;;18.90;33.10;;;;;;5103562;28;20313;-55
2021/04/23 12:15:19;;;;;;;5.85;4.63;;;18.70;33.30;;;;;;5100258;28;20307;-54
2021/04/23 12:17:45;;;;;;;4.85;3.35;;;18.90;31.90;;;;;;5103775;28;20194;-55
2021/04/23 12:20:20;;;;;;;5.00;4.27;;;18.90;29.00;;;;;;5106045;28;20180;-55
2021/04/23 12:22:46;;;;;;;5.47;3.42;;;18.80;31.20;;;;;;5103151;28;20210;-53
2021/04/23 12:25:39;;;;;;;5.50;3.25;;;18.80;28.30;;;;;;5106942;28;20190;-53
2021/04/23 12:28:24;;;;;;;6.93;3.70;;;18.70;26.90;;;;;;5102531;28;20176;-53
2021/04/23 12:31:20;;;;;;;6.07;4.15;;;18.50;29.20;;;;;;5102168;28;20194;-54
2021/04/23 12:34:08;;;;;;;11.05;4.45;;;18.60;31.00;;;;;;5104491;28;20573;-57
2021/04/23 12:36:37;;;;;;;7.05;5.05;;;18.50;30.80;;;;;;5099508;28;20599;-53
2021/04/23 12:39:20;;;;;;;5.05;3.80;;;18.50;31.40;;;;;;5106448;27;20183;-57
2021/04/23 12:41:49;;;;;;;6.03;4.50;;;18.60;29.80;;;;;;5101526;28;20581;-56
2021/04/23 12:44:17;;;;;;;6.75;5.32;;;18.80;30.00;;;;;;5099316;28;20465;-58
2021/04/23 12:47:00;;;;;;;4.03;3.30;;;19.00;30.30;;;;;;5106964;28;20310;-58
2021/04/23 12:49:27;;;;;;;6.78;4.22;;;18.90;28.30;;;;;;5100996;28;20185;-56
2021/04/23 12:52:04;;;;;;;4.03;3.30;;;18.60;29.10;;;;;;5101752;28;20322;-55
2021/04/23 12:54:39;;;;;;;4.82;3.85;;;18.20;28.80;;;;;;5105958;28;20266;-54
2021/04/23 12:57:11;;;;;;;4.57;3.60;;;18.00;29.50;;;;;;5100159;28;20649;-53
2021/04/23 12:59:42;;;;;;;11.25;5.15;;;18.10;29.30;;;;;;5100014;28;20184;-55
2021/04/23 13:02:25;;;;;;;5.18;4.65;;;18.30;30.60;;;;;;5098829;28;20200;-53